Time;durP1;ratioP1;P1;durP2;ratioP2;P2;SDS_P1;SDS_P2;PMS_P1;PMS_P2;Temp;Humidity;BMP_temperature;BMP_pressure;BME280_temperature;BME280_humidity;BME280_pressure;Samples;Min_cycle;Max_cycle;Signal;HPM_P1;HPM_P2
2023/03/26 00:00:22;;;;;;;6.70;1.40;;;;;;;;;;5115034;28;20190;-73
2023/03/26 00:02:50;;;;;;;7.67;1.30;;;;;;;;;;5115397;28;20228;-74
2023/03/26 00:05:17;;;;;;;8.93;1.40;;;;;;;;;;5115092;28;20328;-73
2023/03/26 00:07:45;;;;;;;5.93;1.20;;;;;;;;;;5115256;28;20285;-74
2023/03/26 00:10:14;;;;;;;8.57;1.73;;;;;;;;;;5115133;28;20255;-73
2023/03/26 00:12:41;;;;;;;8.43;1.67;;;;;;;;;;5114820;28;20285;-74
2023/03/26 00:15:09;;;;;;;9.97;1.80;;;;;;;;;;5114733;28;20391;-73
2023/03/26 00:17:37;;;;;;;6.47;1.57;;;;;;;;;;5114926;28;20247;-74
2023/03/26 00:20:06;;;;;;;4.27;1.20;;;;;;;;;;5115215;28;20285;-74
2023/03/26 00:22:34;;;;;;;2.37;0.73;;;;;;;;;;5115061;28;20197;-73
2023/03/26 00:25:01;;;;;;;3.23;0.60;;;;;;;;;;5114879;28;20316;-73
2023/03/26 00:27:28;;;;;;;3.33;0.47;;;;;;;;;;5114587;28;20229;-73
2023/03/26 00:29:56;;;;;;;0.90;0.20;;;;;;;;;;5115004;28;20237;-72
2023/03/26 00:32:26;;;;;;;1.53;0.40;;;;;;;;;;5114693;28;20208;-74
2023/03/26 00:34:55;;;;;;;2.43;0.20;;;;;;;;;;5114652;28;20201;-73
2023/03/26 00:37:25;;;;;;;0.40;0.17;;;;;;;;;;5114759;28;20666;-73
2023/03/26 00:39:52;;;;;;;1.13;0.30;;;;;;;;;;5114544;28;20737;-73
2023/03/26 00:42:19;;;;;;;0.87;0.20;;;;;;;;;;5114228;27;20281;-73
2023/03/26 00:44:49;;;;;;;2.17;0.30;;;;;;;;;;5114036;28;20323;-74
2023/03/26 00:47:17;;;;;;;2.20;0.30;;;;;;;;;;5114414;27;20229;-73
2023/03/26 00:49:45;;;;;;;2.20;0.50;;;;;;;;;;5114426;28;20240;-73
2023/03/26 00:52:17;;;;;;;2.73;0.60;;;;;;;;;;5114710;28;20201;-74
2023/03/26 00:54:44;;;;;;;2.50;0.40;;;;;;;;;;5113839;27;20287;-73
2023/03/26 00:57:12;;;;;;;1.93;0.50;;;;;;;;;;5114352;28;20190;-73
2023/03/26 00:59:39;;;;;;;1.73;0.53;;;;;;;;;;5114263;28;20194;-74
2023/03/26 01:02:09;;;;;;;2.07;1.00;;;;;;;;;;5113769;28;20576;-73
2023/03/26 01:04:36;;;;;;;3.03;0.63;;;;;;;;;;5113985;28;20218;-73
2023/03/26 01:07:05;;;;;;;3.10;0.50;;;;;;;;;;5114129;28;20295;-73
2023/03/26 01:09:35;;;;;;;2.73;0.50;;;;;;;;;;5114092;27;20224;-73
2023/03/26 01:12:03;;;;;;;3.53;0.60;;;;;;;;;;5113481;27;20288;-73
2023/03/26 01:14:31;;;;;;;4.83;0.73;;;;;;;;;;5114218;28;20268;-73
2023/03/26 01:16:59;;;;;;;3.70;0.87;;;;;;;;;;5114037;28;20232;-73
2023/03/26 01:19:29;;;;;;;5.57;0.93;;;;;;;;;;5113976;28;20292;-73
2023/03/26 01:21:57;;;;;;;2.90;0.80;;;;;;;;;;5113934;28;20288;-73
2023/03/26 01:24:25;;;;;;;3.23;1.17;;;;;;;;;;5113377;28;20307;-72
2023/03/26 01:27:06;;;;;;;6.67;1.70;;;;;;;;;;5114005;28;20288;-74
2023/03/26 01:29:39;;;;;;;3.63;1.10;;;;;;;;;;5113641;28;20649;-73
2023/03/26 01:32:13;;;;;;;5.67;1.40;;;;;;;;;;5113777;28;20197;-72
2023/03/26 01:34:48;;;;;;;4.17;1.23;;;;;;;;;;5113541;27;20291;-73
2023/03/26 01:37:19;;;;;;;5.87;1.20;;;;;;;;;;5113728;28;20873;-73
2023/03/26 01:39:52;;;;;;;6.67;1.40;;;;;;;;;;5112769;28;20210;-73
2023/03/26 01:42:22;;;;;;;6.70;1.00;;;;;;;;;;5113746;28;20696;-73
2023/03/26 01:44:53;;;;;;;7.03;1.30;;;;;;;;;;5113069;28;20314;-73
2023/03/26 01:47:21;;;;;;;7.73;1.27;;;;;;;;;;5113130;28;20236;-73
2023/03/26 01:49:48;;;;;;;7.43;1.40;;;;;;;;;;5113569;28;20199;-73
2023/03/26 01:52:17;;;;;;;7.47;1.40;;;;;;;;;;5113446;28;20288;-73
2023/03/26 01:54:45;;;;;;;6.43;1.80;;;;;;;;;;5112854;28;20291;-73
2023/03/26 01:57:17;;;;;;;6.03;1.50;;;;;;;;;;5112937;28;20207;-73
2023/03/26 02:00:03;;;;;;;9.10;1.53;;;;;;;;;;5113375;28;20288;-73
2023/03/26 02:02:35;;;;;;;7.83;1.40;;;;;;;;;;5112816;28;20204;-73
2023/03/26 02:05:09;;;;;;;6.07;1.60;;;;;;;;;;5112733;28;20229;-73
2023/03/26 02:07:40;;;;;;;9.37;1.80;;;;;;;;;;5113322;28;20200;-72
2023/03/26 02:10:10;;;;;;;7.43;1.40;;;;;;;;;;5112873;28;20200;-73
2023/03/26 02:12:39;;;;;;;7.53;1.40;;;;;;;;;;5112648;28;20665;-73
2023/03/26 02:15:07;;;;;;;7.13;1.47;;;;;;;;;;5112761;28;20255;-72
2023/03/26 02:17:35;;;;;;;8.53;1.57;;;;;;;;;;5112627;28;20227;-73
2023/03/26 02:20:09;;;;;;;8.20;1.23;;;;;;;;;;5112460;28;20652;-72
2023/03/26 02:22:39;;;;;;;8.43;1.67;;;;;;;;;;5112692;28;20193;-73
2023/03/26 02:25:08;;;;;;;9.30;1.43;;;;;;;;;;5112048;28;20229;-73
2023/03/26 02:27:35;;;;;;;10.17;1.40;;;;;;;;;;5112486;28;20194;-73
2023/03/26 02:30:04;;;;;;;8.67;1.73;;;;;;;;;;5112220;28;20288;-73
2023/03/26 02:32:31;;;;;;;10.23;1.50;;;;;;;;;;5112419;28;20235;-73
2023/03/26 02:34:58;;;;;;;11.77;1.73;;;;;;;;;;5112687;28;20232;-72
2023/03/26 02:37:25;;;;;;;10.60;1.80;;;;;;;;;;5112224;28;20198;-73
2023/03/26 02:39:53;;;;;;;8.93;1.50;;;;;;;;;;5111655;28;20295;-73
2023/03/26 02:42:20;;;;;;;11.63;1.63;;;;;;;;;;5106015;28;20300;-72
2023/03/26 02:44:47;;;;;;;11.87;2.00;;;;;;;;;;5100192;28;20264;-72
2023/03/26 02:47:16;;;;;;;12.00;2.07;;;;;;;;;;5091505;28;20311;-72
2023/03/26 02:49:43;;;;;;;12.60;2.30;;;;;;;;;;5091728;28;20240;-73
2023/03/26 02:52:10;;;;;;;11.63;1.70;;;;;;;;;;5091377;28;20287;-73
2023/03/26 02:54:37;;;;;;;12.57;2.10;;;;;;;;;;5091568;28;20283;-73
2023/03/26 02:57:05;;;;;;;11.03;1.70;;;;;;;;;;5091801;28;20198;-72
2023/03/26 02:59:32;;;;;;;10.93;1.47;;;;;;;;;;5091684;28;20289;-73
2023/03/26 03:01:59;;;;;;;9.23;1.80;;;;;;;;;;5091496;28;20290;-72
2023/03/26 03:04:27;;;;;;;11.10;1.83;;;;;;;;;;5091265;28;20285;-74
2023/03/26 03:06:56;;;;;;;10.20;1.70;;;;;;;;;;5091229;28;20285;-73
2023/03/26 03:09:24;;;;;;;11.43;2.03;;;;;;;;;;5091501;28;20233;-73
2023/03/26 03:11:52;;;;;;;13.07;1.73;;;;;;;;;;5091514;28;20195;-73
2023/03/26 03:14:19;;;;;;;7.57;1.37;;;;;;;;;;5111279;28;20195;-72
2023/03/26 03:16:47;;;;;;;8.27;1.80;;;;;;;;;;5111688;28;20837;-73
2023/03/26 03:19:14;;;;;;;11.63;1.87;;;;;;;;;;5111666;28;20314;-72
2023/03/26 03:21:43;;;;;;;13.73;2.13;;;;;;;;;;5111569;28;20748;-73
2023/03/26 03:24:12;;;;;;;8.60;1.70;;;;;;;;;;5111760;28;20285;-73
2023/03/26 03:26:41;;;;;;;9.73;2.43;;;;;;;;;;5112173;28;20231;-73
2023/03/26 03:29:08;;;;;;;11.80;1.73;;;;;;;;;;5110411;28;20668;-73
2023/03/26 03:31:35;;;;;;;12.30;1.60;;;;;;;;;;5111660;28;20230;-72
2023/03/26 03:34:02;;;;;;;11.23;1.70;;;;;;;;;;5111499;28;20287;-73
2023/03/26 03:36:31;;;;;;;13.17;2.13;;;;;;;;;;5111162;28;20308;-73
2023/03/26 03:39:01;;;;;;;14.97;1.97;;;;;;;;;;5111494;28;20189;-73
2023/03/26 03:41:29;;;;;;;10.27;1.70;;;;;;;;;;5111544;28;20286;-72
2023/03/26 03:43:58;;;;;;;16.50;2.23;;;;;;;;;;5111778;28;20566;-71
2023/03/26 03:46:25;;;;;;;13.37;2.13;;;;;;;;;;5111983;28;20715;-73
2023/03/26 03:48:52;;;;;;;12.60;1.90;;;;;;;;;;5111317;28;20664;-72
2023/03/26 03:51:19;;;;;;;14.50;1.93;;;;;;;;;;5111005;28;20223;-72
2023/03/26 03:53:48;;;;;;;17.30;2.30;;;;;;;;;;5111749;28;20319;-73
2023/03/26 03:56:17;;;;;;;12.80;1.60;;;;;;;;;;5111367;28;20197;-73
2023/03/26 03:58:46;;;;;;;16.03;2.20;;;;;;;;;;5111266;28;20196;-73
2023/03/26 04:01:14;;;;;;;15.30;2.27;;;;;;;;;;5111123;28;20242;-73
2023/03/26 04:03:44;;;;;;;12.93;2.53;;;;;;;;;;5111579;28;20195;-73
2023/03/26 04:06:12;;;;;;;11.57;2.00;;;;;;;;;;5111109;28;20257;-73
2023/03/26 04:08:39;;;;;;;11.43;1.83;;;;;;;;;;5111016;28;20278;-73
2023/03/26 04:11:09;;;;;;;14.70;1.90;;;;;;;;;;5111550;28;20289;-73
2023/03/26 04:13:38;;;;;;;15.03;2.07;;;;;;;;;;5110926;28;20208;-73
2023/03/26 04:16:05;;;;;;;10.07;1.80;;;;;;;;;;5111045;28;20199;-72
2023/03/26 04:18:32;;;;;;;9.07;1.93;;;;;;;;;;5111006;28;20286;-73
2023/03/26 04:21:02;;;;;;;8.27;1.73;;;;;;;;;;5110815;28;20290;-73
2023/03/26 04:23:29;;;;;;;15.30;1.93;;;;;;;;;;5111121;28;20200;-73
2023/03/26 04:25:57;;;;;;;13.40;2.57;;;;;;;;;;5111116;28;20702;-73
2023/03/26 04:28:29;;;;;;;16.80;2.17;;;;;;;;;;5110816;28;20288;-73
2023/03/26 04:31:00;;;;;;;11.43;2.20;;;;;;;;;;5110928;28;20560;-73
2023/03/26 04:33:28;;;;;;;7.70;1.40;;;;;;;;;;5111099;28;20197;-74
2023/03/26 04:36:00;;;;;;;13.37;2.30;;;;;;;;;;5110664;28;20221;-74
2023/03/26 04:38:27;;;;;;;9.60;1.53;;;;;;;;;;5110757;28;20678;-73
2023/03/26 04:40:59;;;;;;;9.93;1.27;;;;;;;;;;5112011;28;20280;-74
2023/03/26 04:43:26;;;;;;;7.17;1.00;;;;;;;;;;5114554;28;20208;-74
2023/03/26 04:45:54;;;;;;;3.77;0.80;;;;;;;;;;5114830;28;20255;-73
2023/03/26 04:48:22;;;;;;;5.07;1.23;;;;;;;;;;5114426;28;20239;-73
2023/03/26 04:50:50;;;;;;;8.87;1.20;;;;;;;;;;5114627;27;20235;-74
2023/03/26 04:53:18;;;;;;;6.47;1.10;;;;;;;;;;5114025;28;20658;-74
2023/03/26 04:55:47;;;;;;;7.53;1.07;;;;;;;;;;5114347;28;20309;-74
2023/03/26 04:58:15;;;;;;;5.73;1.07;;;;;;;;;;5114302;28;20234;-73
2023/03/26 05:00:42;;;;;;;6.13;1.33;;;;;;;;;;5114384;28;20228;-73
2023/03/26 05:03:10;;;;;;;8.27;1.37;;;;;;;;;;5113770;28;20208;-73
2023/03/26 05:05:39;;;;;;;9.37;1.60;;;;;;;;;;5113901;28;20312;-73
2023/03/26 05:08:06;;;;;;;5.47;0.93;;;;;;;;;;5113832;28;20205;-74
2023/03/26 05:10:33;;;;;;;8.43;1.37;;;;;;;;;;5114198;28;20273;-73
2023/03/26 05:13:01;;;;;;;11.37;1.60;;;;;;;;;;5114269;28;20205;-74
2023/03/26 05:15:28;;;;;;;8.57;1.43;;;;;;;;;;5113777;28;20301;-73
2023/03/26 05:17:55;;;;;;;9.63;1.60;;;;;;;;;;5113348;28;20295;-74
2023/03/26 05:20:23;;;;;;;11.13;1.50;;;;;;;;;;5113974;28;20579;-74
2023/03/26 05:22:52;;;;;;;7.67;1.77;;;;;;;;;;5114044;28;20225;-73
2023/03/26 05:25:19;;;;;;;6.77;1.10;;;;;;;;;;5113814;28;20285;-73
2023/03/26 05:27:46;;;;;;;7.83;1.73;;;;;;;;;;5113467;28;20238;-73
2023/03/26 05:30:15;;;;;;;7.77;1.50;;;;;;;;;;5113730;28;20227;-73
2023/03/26 05:32:42;;;;;;;6.83;1.70;;;;;;;;;;5113052;28;20765;-73
2023/03/26 05:35:10;;;;;;;8.70;1.20;;;;;;;;;;5113586;28;20314;-73
2023/03/26 05:37:37;;;;;;;6.43;1.23;;;;;;;;;;5113822;28;20208;-73
2023/03/26 05:40:10;;;;;;;4.60;1.13;;;;;;;;;;5113207;28;20849;-73
2023/03/26 05:42:38;;;;;;;5.63;1.07;;;;;;;;;;5113544;28;20201;-73
2023/03/26 05:45:06;;;;;;;4.77;1.40;;;;;;;;;;5113407;28;20196;-73
2023/03/26 05:47:33;;;;;;;7.10;1.20;;;;;;;;;;5112593;28;20274;-74
2023/03/26 05:50:00;;;;;;;5.07;1.03;;;;;;;;;;5113750;28;20293;-74
2023/03/26 05:52:28;;;;;;;5.30;1.43;;;;;;;;;;5112311;28;20237;-74
2023/03/26 05:54:55;;;;;;;8.47;1.40;;;;;;;;;;5112669;28;20617;-73
2023/03/26 05:57:27;;;;;;;6.20;1.30;;;;;;;;;;5112957;28;20231;-73
2023/03/26 05:59:55;;;;;;;4.47;1.53;;;;;;;;;;5113078;28;20220;-74
2023/03/26 06:02:22;;;;;;;4.40;1.03;;;;;;;;;;5113127;27;20200;-73
2023/03/26 06:04:50;;;;;;;5.80;1.40;;;;;;;;;;5112938;28;20288;-72
2023/03/26 06:07:18;;;;;;;5.40;1.00;;;;;;;;;;5113228;28;20235;-73
2023/03/26 06:09:45;;;;;;;9.10;1.57;;;;;;;;;;5113099;28;20194;-73
2023/03/26 06:12:14;;;;;;;9.40;1.10;;;;;;;;;;5112682;28;20285;-73
2023/03/26 06:14:42;;;;;;;7.80;1.17;;;;;;;;;;5112774;28;20632;-72
2023/03/26 06:17:10;;;;;;;5.00;1.00;;;;;;;;;;5112691;28;20229;-72
2023/03/26 06:19:37;;;;;;;7.03;1.00;;;;;;;;;;5112951;28;20292;-72
2023/03/26 06:22:04;;;;;;;7.67;1.13;;;;;;;;;;5112763;28;20285;-73
2023/03/26 06:24:33;;;;;;;7.20;1.20;;;;;;;;;;5112650;28;20230;-72
2023/03/26 06:27:00;;;;;;;5.60;1.03;;;;;;;;;;5112563;28;20225;-73
2023/03/26 06:29:27;;;;;;;6.63;1.53;;;;;;;;;;5112480;28;20297;-73
2023/03/26 06:31:56;;;;;;;5.10;1.20;;;;;;;;;;5112021;28;20663;-73
2023/03/26 06:34:23;;;;;;;4.20;1.37;;;;;;;;;;5112284;28;20290;-73
2023/03/26 06:36:51;;;;;;;7.20;1.03;;;;;;;;;;5112807;28;20292;-73
2023/03/26 06:39:19;;;;;;;7.07;1.00;;;;;;;;;;5112045;28;20209;-73
2023/03/26 06:41:46;;;;;;;4.87;1.23;;;;;;;;;;5112396;28;20277;-72
2023/03/26 06:44:13;;;;;;;5.17;1.00;;;;;;;;;;5112066;28;20244;-73
2023/03/26 06:46:41;;;;;;;4.77;0.93;;;;;;;;;;5111710;28;20275;-73
2023/03/26 06:49:09;;;;;;;3.90;0.90;;;;;;;;;;5112238;28;20303;-73
2023/03/26 06:51:38;;;;;;;4.20;1.00;;;;;;;;;;5112755;28;20280;-73
2023/03/26 06:54:05;;;;;;;7.10;0.93;;;;;;;;;;5112068;28;20202;-73
2023/03/26 06:56:33;;;;;;;5.00;1.20;;;;;;;;;;5112207;28;20605;-73
2023/03/26 06:59:00;;;;;;;6.20;1.23;;;;;;;;;;5111823;28;20229;-73
2023/03/26 07:01:28;;;;;;;4.90;1.20;;;;;;;;;;5111594;28;20288;-72
2023/03/26 07:03:55;;;;;;;6.53;1.20;;;;;;;;;;5111842;28;20596;-72
2023/03/26 07:06:23;;;;;;;5.70;1.60;;;;;;;;;;5111870;28;20231;-72
2023/03/26 07:08:51;;;;;;;7.67;1.10;;;;;;;;;;5111779;28;20289;-72
2023/03/26 07:11:19;;;;;;;6.70;1.30;;;;;;;;;;5112097;28;20233;-73
2023/03/26 07:13:46;;;;;;;6.83;1.27;;;;;;;;;;5110961;28;20233;-72
2023/03/26 07:16:14;;;;;;;8.53;1.43;;;;;;;;;;5111755;28;20239;-73
2023/03/26 07:18:41;;;;;;;6.47;1.40;;;;;;;;;;5112167;28;20190;-72
2023/03/26 07:21:09;;;;;;;6.60;1.40;;;;;;;;;;5111581;28;20677;-73
2023/03/26 07:23:38;;;;;;;8.07;1.40;;;;;;;;;;5111432;28;20284;-73
2023/03/26 07:26:13;;;;;;;5.90;1.17;;;;;;;;;;5111834;28;20292;-73
2023/03/26 07:28:42;;;;;;;7.97;1.60;;;;;;;;;;5111129;28;20279;-73
2023/03/26 07:31:17;;;;;;;5.97;2.20;;;;;;;;;;5111670;28;20300;-72
2023/03/26 07:33:47;;;;;;;6.63;1.47;;;;;;;;;;5111425;28;20566;-73
2023/03/26 07:36:20;;;;;;;8.57;1.70;;;;;;;;;;5112006;28;20285;-73
2023/03/26 07:38:54;;;;;;;8.10;1.17;;;;;;;;;;5111532;28;20647;-74
2023/03/26 07:41:25;;;;;;;8.87;1.50;;;;;;;;;;5111926;28;20189;-73
2023/03/26 07:43:57;;;;;;;7.78;1.60;;;;;;;;;;5110946;28;20300;-73
2023/03/26 07:46:30;;;;;;;6.55;1.60;;;;;;;;;;5111588;28;20265;-73
2023/03/26 07:49:00;;;;;;;5.70;1.67;;;;;;;;;;5111558;28;20282;-73
2023/03/26 07:51:28;;;;;;;11.57;1.90;;;;;;;;;;5111387;28;20639;-73
2023/03/26 07:53:58;;;;;;;5.50;1.60;;;;;;;;;;5111493;28;20194;-74
2023/03/26 07:56:30;;;;;;;6.20;1.80;;;;;;;;;;5111331;28;20201;-73
2023/03/26 07:59:04;;;;;;;8.10;1.80;;;;;;;;;;5111205;28;20201;-73
2023/03/26 08:01:40;;;;;;;7.63;1.80;;;;;;;;;;5111646;28;20287;-73
2023/03/26 08:04:12;;;;;;;8.20;1.95;;;;;;;;;;5111050;28;20244;-74
2023/03/26 08:06:41;;;;;;;11.93;2.10;;;;;;;;;;5110970;28;20768;-74
2023/03/26 08:09:14;;;;;;;8.90;2.00;;;;;;;;;;5111355;28;20220;-74
2023/03/26 08:11:48;;;;;;;7.07;1.80;;;;;;;;;;5110778;28;20314;-73
2023/03/26 08:14:24;;;;;;;9.00;2.07;;;;;;;;;;5111300;28;20290;-73
2023/03/26 08:16:54;;;;;;;7.80;1.60;;;;;;;;;;5113742;28;20232;-73
2023/03/26 08:19:29;;;;;;;12.17;2.67;;;;;;;;;;5115306;28;20251;-72
2023/03/26 08:22:00;;;;;;;8.10;2.27;;;;;;;;;;5114780;28;20221;-73
2023/03/26 08:24:35;;;;;;;12.27;2.17;;;;;;;;;;5115120;28;20202;-74
2023/03/26 08:27:07;;;;;;;12.30;2.40;;;;;;;;;;5114407;28;20315;-74
2023/03/26 08:29:36;;;;;;;11.40;3.20;;;;;;;;;;5115215;28;20193;-73
2023/03/26 08:32:04;;;;;;;15.00;2.53;;;;;;;;;;5114788;28;20194;-74
2023/03/26 08:34:32;;;;;;;8.30;1.80;;;;;;;;;;5114524;28;20285;-73
2023/03/26 08:37:00;;;;;;;13.27;3.10;;;;;;;;;;5114966;28;20254;-73
2023/03/26 08:39:29;;;;;;;13.73;2.30;;;;;;;;;;5115048;28;20262;-74
2023/03/26 08:42:16;;;;;;;16.13;2.93;;;;;;;;;;5114434;28;20224;-74
2023/03/26 08:44:59;;;;;;;12.30;2.23;;;;;;;;;;5114580;28;20280;-73
2023/03/26 08:47:49;;;;;;;4.50;1.27;;;;;;;;;;5114274;27;20241;-73
2023/03/26 08:50:40;;;;;;;2.53;0.70;;;;;;;;;;5114242;28;20229;-74
2023/03/26 08:53:41;;;;;;;2.87;1.10;;;;;;;;;;5091376;28;20850;-74
2023/03/26 08:56:12;;;;;;;2.23;0.80;;;;;;;;;;5019519;28;20192;-73
2023/03/26 08:58:56;;;;;;;2.60;0.60;;;;;;;;;;5029541;28;20196;-73
2023/03/26 09:01:38;;;;;;;2.20;0.50;;;;;;;;;;5011259;28;20275;-72
2023/03/26 09:04:20;;;;;;;2.50;0.80;;;;;;;;;;5020027;28;20232;-73
2023/03/26 09:07:10;;;;;;;3.53;0.70;;;;;;;;;;5031148;28;20276;-73
2023/03/26 09:09:56;;;;;;;3.50;1.10;;;;;;;;;;5025229;28;20291;-73
2023/03/26 09:12:43;;;;;;;6.47;1.30;;;;;;;;;;5014434;28;20203;-73
2023/03/26 09:15:28;;;;;;;5.90;1.00;;;;;;;;;;5011774;28;20232;-73
2023/03/26 09:18:19;;;;;;;2.63;0.87;;;;;;;;;;5011447;28;20292;-72
2023/03/26 09:21:01;;;;;;;3.10;1.00;;;;;;;;;;5015514;28;20214;-73
2023/03/26 09:23:38;;;;;;;2.03;0.90;;;;;;;;;;5026173;28;20736;-72
2023/03/26 09:26:17;;;;;;;3.63;2.63;;;;;;;;;;5036141;28;20930;-73
2023/03/26 09:29:06;;;;;;;4.33;3.00;;;;;;;;;;5086529;28;20329;-73
2023/03/26 09:31:49;;;;;;;5.87;2.60;;;;;;;;;;5098774;27;20297;-73
2023/03/26 09:34:26;;;;;;;3.00;1.30;;;;;;;;;;5112825;28;20229;-73
2023/03/26 09:36:56;;;;;;;6.00;1.90;;;;;;;;;;5111201;28;20202;-73
2023/03/26 09:39:36;;;;;;;5.30;1.60;;;;;;;;;;5113097;27;20685;-73
2023/03/26 09:42:09;;;;;;;3.37;1.30;;;;;;;;;;5110201;28;20208;-73
2023/03/26 09:44:50;;;;;;;3.97;1.70;;;;;;;;;;5111984;28;20629;-73
2023/03/26 09:47:38;;;;;;;5.03;1.60;;;;;;;;;;5113149;27;20259;-73
2023/03/26 09:50:20;;;;;;;6.03;1.70;;;;;;;;;;5111367;28;20300;-73
2023/03/26 09:53:04;;;;;;;4.10;1.40;;;;;;;;;;5111997;28;20277;-73
2023/03/26 09:55:38;;;;;;;2.93;0.97;;;;;;;;;;5112883;28;20231;-73
2023/03/26 09:58:26;;;;;;;4.10;1.10;;;;;;;;;;5113212;28;20287;-74
2023/03/26 10:00:59;;;;;;;6.13;1.20;;;;;;;;;;5111313;28;20301;-73
2023/03/26 10:03:31;;;;;;;5.03;1.20;;;;;;;;;;5113310;28;20232;-73
2023/03/26 10:06:03;;;;;;;3.83;1.27;;;;;;;;;;5113175;28;20628;-73
2023/03/26 10:08:35;;;;;;;3.73;1.20;;;;;;;;;;5113303;28;20319;-73
2023/03/26 10:11:05;;;;;;;3.77;0.93;;;;;;;;;;5113549;28;20602;-73
2023/03/26 10:13:39;;;;;;;3.40;1.40;;;;;;;;;;5113157;28;20234;-73
2023/03/26 10:16:13;;;;;;;4.27;1.60;;;;;;;;;;5113167;28;20282;-73
2023/03/26 10:18:47;;;;;;;5.07;1.90;;;;;;;;;;5112786;28;20287;-72
2023/03/26 10:21:18;;;;;;;4.47;2.30;;;;;;;;;;5112797;28;20202;-74
2023/03/26 10:23:55;;;;;;;4.50;2.17;;;;;;;;;;5112968;28;20764;-73
2023/03/26 10:26:36;;;;;;;6.13;2.00;;;;;;;;;;5112995;28;20197;-73
2023/03/26 10:29:09;;;;;;;4.90;2.13;;;;;;;;;;5112759;28;20221;-74
2023/03/26 10:31:40;;;;;;;6.63;3.63;;;;;;;;;;5112767;28;20193;-73
2023/03/26 10:34:14;;;;;;;4.27;1.97;;;;;;;;;;5112773;28;20194;-73
2023/03/26 10:36:48;;;;;;;2.83;2.37;;;;;;;;;;5112617;28;20342;-73
2023/03/26 10:39:32;;;;;;;1.70;1.33;;;;;;;;;;5112115;28;20228;-72
2023/03/26 10:42:01;;;;;;;3.67;1.70;;;;;;;;;;5112543;28;20260;-73
2023/03/26 10:44:42;;;;;;;2.60;1.70;;;;;;;;;;5112244;28;20701;-74
2023/03/26 10:47:27;;;;;;;2.90;1.13;;;;;;;;;;5112465;28;20241;-73
2023/03/26 10:50:03;;;;;;;1.77;0.57;;;;;;;;;;5029607;28;20277;-73
2023/03/26 10:52:33;;;;;;;0.80;0.60;;;;;;;;;;5028830;28;20251;-73
2023/03/26 10:55:04;;;;;;;1.33;0.90;;;;;;;;;;5029667;28;20228;-73
2023/03/26 10:57:38;;;;;;;2.73;0.83;;;;;;;;;;5029572;28;20295;-73
2023/03/26 11:00:24;;;;;;;3.13;1.30;;;;;;;;;;5029302;28;20760;-73
2023/03/26 11:03:02;;;;;;;1.67;1.00;;;;;;;;;;5029375;28;20724;-73
2023/03/26 11:05:41;;;;;;;1.40;0.70;;;;;;;;;;5028922;28;20359;-73
2023/03/26 11:08:11;;;;;;;0.87;0.43;;;;;;;;;;5029168;28;20310;-73
2023/03/26 11:10:47;;;;;;;1.77;0.80;;;;;;;;;;5029344;28;20287;-74
2023/03/26 11:13:19;;;;;;;1.13;0.40;;;;;;;;;;5028978;28;20200;-73
2023/03/26 11:15:51;;;;;;;1.80;1.20;;;;;;;;;;5029109;28;20196;-73
2023/03/26 11:18:21;;;;;;;1.20;0.87;;;;;;;;;;5028844;28;20295;-73
2023/03/26 11:20:51;;;;;;;1.23;0.55;;;;;;;;;;5028794;28;20242;-73
2023/03/26 11:23:23;;;;;;;1.35;0.88;;;;;;;;;;5029225;28;20224;-74
2023/03/26 11:26:01;;;;;;;0.73;0.40;;;;;;;;;;5029121;28;20243;-74
2023/03/26 11:28:38;;;;;;;1.17;0.43;;;;;;;;;;5111455;28;20229;-74
2023/03/26 11:31:09;;;;;;;1.67;0.70;;;;;;;;;;5111925;28;20285;-73
2023/03/26 11:33:37;;;;;;;1.40;0.65;;;;;;;;;;5111633;28;20190;-74
2023/03/26 11:36:07;;;;;;;1.45;1.00;;;;;;;;;;5111689;28;20289;-73
2023/03/26 11:38:37;;;;;;;2.05;0.80;;;;;;;;;;5111898;28;20322;-74
2023/03/26 11:41:11;;;;;;;0.68;0.35;;;;;;;;;;5111838;28;20301;-73
2023/03/26 11:43:38;;;;;;;0.90;0.57;;;;;;;;;;5111554;28;20212;-74
2023/03/26 11:46:08;;;;;;;1.30;0.80;;;;;;;;;;5111780;28;20244;-74
2023/03/26 11:48:39;;;;;;;1.45;0.85;;;;;;;;;;5111884;28;20264;-73
2023/03/26 11:51:09;;;;;;;1.20;0.70;;;;;;;;;;5113051;28;20753;-73
2023/03/26 11:53:38;;;;;;;2.22;1.00;;;;;;;;;;5116101;28;20288;-73
2023/03/26 11:56:13;;;;;;;2.93;1.20;;;;;;;;;;5115937;28;20193;-73
2023/03/26 11:58:44;;;;;;;2.83;0.83;;;;;;;;;;5115210;28;20813;-74
2023/03/26 12:01:14;;;;;;;2.10;0.63;;;;;;;;;;5115741;28;20202;-73
2023/03/26 12:03:41;;;;;;;1.87;0.60;;;;;;;;;;5115446;28;20201;-73
2023/03/26 12:06:24;;;;;;;1.33;0.50;;;;;;;;;;5116786;28;20293;-73
2023/03/26 12:08:51;;;;;;;2.60;0.90;;;;;;;;;;5115610;28;20210;-73
2023/03/26 12:11:23;;;;;;;1.27;0.70;;;;;;;;;;5115952;28;20285;-75
2023/03/26 12:13:52;;;;;;;1.20;0.53;;;;;;;;;;5115153;28;20232;-74
2023/03/26 12:16:20;;;;;;;1.60;0.40;;;;;;;;;;5115925;28;20298;-73
2023/03/26 12:18:58;;;;;;;2.50;0.90;;;;;;;;;;5115678;28;20207;-74
2023/03/26 12:21:25;;;;;;;2.35;0.70;;;;;;;;;;5115107;28;20607;-74
2023/03/26 12:23:56;;;;;;;1.85;0.60;;;;;;;;;;5115546;28;20281;-74
2023/03/26 12:26:32;;;;;;;2.80;0.90;;;;;;;;;;5115303;28;20213;-74
2023/03/26 12:29:05;;;;;;;2.40;0.90;;;;;;;;;;5115326;28;20244;-74
2023/03/26 12:31:41;;;;;;;2.73;1.10;;;;;;;;;;5115170;28;20324;-73
2023/03/26 12:34:13;;;;;;;2.40;1.23;;;;;;;;;;5114660;28;20288;-73
2023/03/26 12:36:43;;;;;;;4.50;1.10;;;;;;;;;;5115562;27;20208;-72
2023/03/26 12:39:29;;;;;;;1.93;0.70;;;;;;;;;;5114911;28;20201;-74
2023/03/26 12:41:59;;;;;;;1.90;0.70;;;;;;;;;;5114772;28;20221;-73
2023/03/26 12:44:28;;;;;;;4.13;1.00;;;;;;;;;;5114885;28;20236;-73
2023/03/26 12:47:08;;;;;;;4.10;0.90;;;;;;;;;;5114682;28;20261;-73
2023/03/26 12:49:36;;;;;;;2.43;0.60;;;;;;;;;;5114846;28;20225;-73
2023/03/26 12:52:10;;;;;;;2.92;1.00;;;;;;;;;;5114631;28;20194;-74
2023/03/26 12:54:47;;;;;;;4.32;0.77;;;;;;;;;;5114909;28;20201;-74
2023/03/26 12:57:21;;;;;;;3.58;1.15;;;;;;;;;;5114616;28;20193;-74
2023/03/26 12:59:54;;;;;;;3.00;0.82;;;;;;;;;;5114345;28;20702;-74
2023/03/26 13:02:31;;;;;;;2.03;0.80;;;;;;;;;;5113960;28;20194;-74
2023/03/26 13:05:06;;;;;;;2.47;0.60;;;;;;;;;;5114496;28;20243;-75
2023/03/26 13:07:41;;;;;;;2.92;0.80;;;;;;;;;;5114457;28;20220;-74
2023/03/26 13:10:24;;;;;;;2.65;0.93;;;;;;;;;;5114223;28;21319;-73
2023/03/26 13:12:58;;;;;;;2.03;0.68;;;;;;;;;;5114084;28;20201;-73
2023/03/26 13:15:27;;;;;;;2.65;0.70;;;;;;;;;;5114004;28;21028;-74
2023/03/26 13:18:03;;;;;;;3.83;1.00;;;;;;;;;;5114037;27;20205;-74
2023/03/26 13:20:36;;;;;;;3.22;1.20;;;;;;;;;;5114076;28;20196;-73
2023/03/26 13:23:07;;;;;;;3.70;0.88;;;;;;;;;;5113752;28;20737;-74
2023/03/26 13:25:39;;;;;;;3.13;0.80;;;;;;;;;;5114590;28;20202;-74
2023/03/26 13:28:16;;;;;;;2.38;0.75;;;;;;;;;;5113914;28;20257;-73
2023/03/26 13:30:47;;;;;;;3.58;1.33;;;;;;;;;;5113969;28;20288;-74
2023/03/26 13:33:22;;;;;;;3.65;0.90;;;;;;;;;;5114250;28;20190;-73
2023/03/26 13:35:54;;;;;;;3.75;1.05;;;;;;;;;;5114230;28;20293;-74
2023/03/26 13:38:25;;;;;;;2.38;1.30;;;;;;;;;;5114129;28;20205;-74
2023/03/26 13:40:57;;;;;;;2.83;0.70;;;;;;;;;;5111961;28;20222;-74
2023/03/26 13:43:37;;;;;;;3.50;1.40;;;;;;;;;;5102964;27;20218;-73
2023/03/26 13:46:07;;;;;;;4.43;1.83;;;;;;;;;;5128974;27;20219;-73
2023/03/26 13:48:37;;;;;;;2.75;0.90;;;;;;;;;;5111255;27;20313;-74
2023/03/26 13:51:07;;;;;;;2.40;0.73;;;;;;;;;;5112912;28;20304;-74
2023/03/26 13:53:38;;;;;;;2.80;0.70;;;;;;;;;;5110231;28;20296;-73
2023/03/26 13:56:06;;;;;;;4.03;0.90;;;;;;;;;;5112628;28;20229;-73
2023/03/26 13:58:38;;;;;;;3.57;1.03;;;;;;;;;;5111822;28;20194;-73
2023/03/26 14:01:08;;;;;;;2.40;0.70;;;;;;;;;;5111104;27;20204;-73
2023/03/26 14:03:41;;;;;;;2.43;0.87;;;;;;;;;;5101804;28;20200;-73
2023/03/26 14:06:11;;;;;;;3.53;1.00;;;;;;;;;;5110857;28;20197;-73
2023/03/26 14:08:40;;;;;;;4.37;0.90;;;;;;;;;;5110634;27;20302;-73
2023/03/26 14:11:09;;;;;;;4.93;2.20;;;;;;;;;;5111590;28;20194;-73
2023/03/26 14:13:40;;;;;;;2.80;0.70;;;;;;;;;;5111818;28;20242;-73
2023/03/26 14:16:13;;;;;;;2.97;0.97;;;;;;;;;;5112009;28;20221;-74
2023/03/26 14:18:44;;;;;;;3.20;0.70;;;;;;;;;;5121394;27;20202;-73
2023/03/26 14:21:20;;;;;;;3.50;0.88;;;;;;;;;;5111571;28;20190;-72
2023/03/26 14:24:02;;;;;;;2.40;0.68;;;;;;;;;;5106416;28;20201;-74
2023/03/26 14:26:40;;;;;;;4.22;0.70;;;;;;;;;;5110302;27;20698;-73
2023/03/26 14:29:25;;;;;;;3.35;1.05;;;;;;;;;;5111653;28;20641;-73
2023/03/26 14:31:59;;;;;;;3.38;1.25;;;;;;;;;;5110400;28;20201;-72
2023/03/26 14:34:34;;;;;;;4.32;1.13;;;;;;;;;;5113075;27;20204;-74
2023/03/26 14:37:08;;;;;;;2.80;0.90;;;;;;;;;;5109261;28;20266;-73
2023/03/26 14:39:53;;;;;;;4.70;1.15;;;;;;;;;;5111019;28;20293;-72
2023/03/26 14:42:25;;;;;;;3.35;1.00;;;;;;;;;;5109581;28;20293;-73
2023/03/26 14:45:04;;;;;;;2.88;0.75;;;;;;;;;;5110934;28;20207;-73
2023/03/26 14:47:31;;;;;;;4.33;1.43;;;;;;;;;;5111698;28;20290;-73
2023/03/26 14:50:19;;;;;;;3.00;0.93;;;;;;;;;;5111879;28;20241;-73
2023/03/26 14:52:47;;;;;;;7.63;1.43;;;;;;;;;;5113689;27;20202;-72
2023/03/26 14:55:17;;;;;;;4.50;0.83;;;;;;;;;;5110299;28;20209;-73
2023/03/26 14:58:02;;;;;;;4.80;1.30;;;;;;;;;;5110999;28;20205;-72
2023/03/26 15:00:44;;;;;;;6.60;1.13;;;;;;;;;;5107353;28;20201;-72
2023/03/26 15:03:33;;;;;;;7.90;1.38;;;;;;;;;;5110525;28;20201;-73
2023/03/26 15:06:18;;;;;;;6.82;1.30;;;;;;;;;;5048975;28;20249;-72